createdAt,value
2022-11-10T00:01:23.403Z,12.60
2022-11-10T00:03:52.655Z,12.50
2022-11-10T00:06:24.679Z,12.50
2022-11-10T00:08:51.853Z,12.50
2022-11-10T00:11:21.255Z,12.50
2022-11-10T00:14:11.274Z,12.50
2022-11-10T00:16:56.592Z,12.50
2022-11-10T00:19:26.365Z,12.50
2022-11-10T00:21:53.399Z,12.50
2022-11-10T00:24:25.049Z,12.40
2022-11-10T00:26:59.940Z,12.40
2022-11-10T00:29:26.963Z,12.40
2022-11-10T00:31:58.351Z,12.40
2022-11-10T00:34:25.409Z,12.40
2022-11-10T00:36:52.780Z,12.40
2022-11-10T00:39:24.548Z,12.40
2022-11-10T00:41:55.792Z,12.30
2022-11-10T00:44:25.283Z,12.30
2022-11-10T00:46:52.330Z,12.30
2022-11-10T00:49:19.466Z,12.30
2022-11-10T00:51:48.611Z,12.30
2022-11-10T00:54:25.880Z,12.30
2022-11-10T00:56:57.173Z,12.30
2022-11-10T00:59:24.316Z,12.30
2022-11-10T01:01:52.969Z,12.30
2022-11-10T01:04:22.283Z,12.30
2022-11-10T01:06:53.782Z,12.30
2022-11-10T01:09:20.828Z,12.30
2022-11-10T01:11:47.880Z,12.30
2022-11-10T01:14:14.926Z,12.30
2022-11-10T01:16:44.473Z,12.30
2022-11-10T01:19:14.837Z,12.30
2022-11-10T01:21:46.232Z,12.30
2022-11-10T01:24:19.398Z,12.30
2022-11-10T01:26:51.432Z,12.20
2022-11-10T01:29:18.566Z,12.20
2022-11-10T01:31:47.673Z,12.30
2022-11-10T01:34:14.714Z,12.30
2022-11-10T01:36:41.747Z,12.20
2022-11-10T01:39:11.073Z,12.20
2022-11-10T01:41:40.566Z,12.20
2022-11-10T01:44:22.670Z,12.30
2022-11-10T01:46:49.949Z,12.30
2022-11-10T01:49:23.763Z,12.30
2022-11-10T01:51:56.344Z,12.30
2022-11-10T01:54:38.685Z,12.40
2022-11-10T01:57:08.908Z,12.40
2022-11-10T01:59:42.851Z,12.30
2022-11-10T02:02:32.850Z,12.30
2022-11-10T02:05:01.948Z,12.30
2022-11-10T02:07:32.533Z,12.30
2022-11-10T02:10:03.258Z,12.30
2022-11-10T02:12:39.047Z,12.30
2022-11-10T02:15:08.038Z,12.30
2022-11-10T02:17:40.003Z,12.20
2022-11-10T02:20:10.449Z,12.20
2022-11-10T02:22:38.374Z,12.30
2022-11-10T02:25:11.781Z,12.30
2022-11-10T02:27:41.037Z,12.30
2022-11-10T02:30:08.753Z,12.30
2022-11-10T02:32:38.345Z,12.30
2022-11-10T02:35:10.500Z,12.30
2022-11-10T02:37:39.894Z,12.30
2022-11-10T02:40:12.244Z,12.30
2022-11-10T02:42:41.456Z,12.30
2022-11-10T02:45:08.860Z,12.30
2022-11-10T02:47:35.929Z,12.30
2022-11-10T02:50:05.646Z,12.30
2022-11-10T02:52:33.584Z,12.30
2022-11-10T02:55:00.655Z,12.30
2022-11-10T02:57:27.738Z,12.30
2022-11-10T02:59:57.400Z,12.30
2022-11-10T03:02:31.157Z,12.30
2022-11-10T03:05:02.109Z,12.30
2022-11-10T03:07:29.262Z,12.30
2022-11-10T03:09:58.584Z,12.30
2022-11-10T03:12:27.894Z,12.20
2022-11-10T03:14:57.133Z,12.20
2022-11-10T03:17:24.279Z,12.20
2022-11-10T03:19:53.563Z,12.20
2022-11-10T03:22:22.895Z,12.20
2022-11-10T03:24:49.943Z,12.10
2022-11-10T03:27:17.052Z,12.10
2022-11-10T03:29:46.283Z,12.10
2022-11-10T03:32:15.598Z,12.10
2022-11-10T03:34:47.271Z,12.10
2022-11-10T03:37:14.382Z,12.10
2022-11-10T03:39:43.931Z,12.10
2022-11-10T03:42:15.715Z,12.00
2022-11-10T03:44:45.017Z,12.00
2022-11-10T03:47:16.704Z,12.00
2022-11-10T03:49:47.056Z,12.00
2022-11-10T03:52:14.967Z,12.00
2022-11-10T03:54:42.428Z,12.00
2022-11-10T03:57:09.495Z,11.90
2022-11-10T03:59:36.568Z,11.90
2022-11-10T04:02:03.675Z,11.90
2022-11-10T04:04:52.129Z,11.90
2022-11-10T04:07:38.075Z,11.90
2022-11-10T04:10:05.714Z,11.90
2022-11-10T04:12:51.299Z,11.80
2022-11-10T04:15:37.068Z,11.80
2022-11-10T04:18:24.611Z,11.80
2022-11-10T04:20:57.840Z,11.80
2022-11-10T04:23:36.367Z,11.70
2022-11-10T04:26:27.020Z,11.70
2022-11-10T04:28:58.518Z,11.70
2022-11-10T04:31:31.885Z,11.70
2022-11-10T04:33:59.900Z,11.70
2022-11-10T04:36:29.942Z,11.70
2022-11-10T04:38:59.446Z,11.70
2022-11-10T04:41:32.533Z,11.70
2022-11-10T04:44:02.500Z,11.60
2022-11-10T04:46:34.954Z,11.60
2022-11-10T04:49:05.587Z,11.60
2022-11-10T04:51:35.074Z,11.60
2022-11-10T04:54:06.056Z,11.60
2022-11-10T04:56:35.465Z,11.60
2022-11-10T04:59:06.824Z,11.60
2022-11-10T05:01:36.238Z,11.60
2022-11-10T05:04:05.547Z,11.60
2022-11-10T05:06:37.505Z,11.50
2022-11-10T05:09:04.661Z,11.50
2022-11-10T05:11:41.382Z,11.50
2022-11-10T05:14:08.465Z,11.50
2022-11-10T05:16:35.623Z,11.50
2022-11-10T05:19:04.920Z,11.50
2022-11-10T05:21:34.150Z,11.50
2022-11-10T05:24:03.382Z,11.50
2022-11-10T05:26:35.364Z,11.50
2022-11-10T05:29:04.797Z,11.50
2022-11-10T05:31:34.929Z,11.40
2022-11-10T05:34:02.030Z,11.40
2022-11-10T05:36:29.139Z,11.40
2022-11-10T05:39:00.599Z,11.40
2022-11-10T05:41:29.830Z,11.40
2022-11-10T05:43:56.899Z,11.40
2022-11-10T05:46:26.699Z,11.40
2022-11-10T05:48:55.985Z,11.30
2022-11-10T05:51:23.669Z,11.30
2022-11-10T05:53:50.754Z,11.30
2022-11-10T05:56:18.085Z,11.30
2022-11-10T05:58:49.788Z,11.30
2022-11-10T06:01:19.315Z,11.30
2022-11-10T06:03:46.409Z,11.30
2022-11-10T06:06:13.559Z,11.30
2022-11-10T06:08:49.889Z,11.30
2022-11-10T06:11:20.494Z,11.30
2022-11-10T06:13:49.750Z,11.30
2022-11-10T06:16:17.053Z,11.30
2022-11-10T06:18:44.091Z,11.30
2022-11-10T06:21:15.621Z,11.30
2022-11-10T06:23:50.163Z,11.30
2022-11-10T06:26:17.401Z,11.30
2022-11-10T06:28:46.917Z,11.20
2022-11-10T06:31:16.086Z,11.30
2022-11-10T06:33:43.256Z,11.30
2022-11-10T06:36:12.403Z,11.30
2022-11-10T06:38:39.469Z,11.20
2022-11-10T06:41:06.557Z,11.20
2022-11-10T06:43:33.706Z,11.20
2022-11-10T06:46:05.796Z,11.30
2022-11-10T06:48:35.212Z,11.20
2022-11-10T06:51:02.934Z,11.30
2022-11-10T06:53:32.885Z,11.30
2022-11-10T06:56:00.366Z,11.30
2022-11-10T06:58:27.482Z,11.30
2022-11-10T07:00:59.127Z,11.30
2022-11-10T07:03:26.263Z,11.30
2022-11-10T07:05:53.725Z,11.30
2022-11-10T07:08:23.267Z,11.30
2022-11-10T07:10:58.218Z,11.30
2022-11-10T07:13:27.649Z,11.30
2022-11-10T07:15:54.699Z,11.30
2022-11-10T07:18:23.892Z,11.30
2022-11-10T07:20:55.905Z,11.30
2022-11-10T07:23:25.526Z,11.30
2022-11-10T07:25:52.696Z,11.30
2022-11-10T07:28:28.125Z,11.30
2022-11-10T07:30:58.774Z,11.30
2022-11-10T07:33:30.107Z,11.30
2022-11-10T07:35:58.833Z,11.30
2022-11-10T07:38:28.309Z,11.30
2022-11-10T07:40:57.734Z,11.30
2022-11-10T07:43:27.062Z,11.30
2022-11-10T07:45:54.127Z,11.40
2022-11-10T07:48:22.070Z,11.40
2022-11-10T07:50:50.959Z,11.40
2022-11-10T07:53:26.103Z,11.40
2022-11-10T07:55:57.776Z,11.40
2022-11-10T07:58:27.029Z,11.50
2022-11-10T08:00:54.136Z,11.50
2022-11-10T08:03:22.108Z,11.50
2022-11-10T08:05:51.951Z,11.50
2022-11-10T08:08:26.000Z,11.60
2022-11-10T08:10:53.112Z,11.60
2022-11-10T08:13:20.522Z,11.60
2022-11-10T08:15:48.177Z,11.60
2022-11-10T08:18:23.810Z,11.70
2022-11-10T08:20:51.368Z,11.70
2022-11-10T08:23:20.840Z,11.70
2022-11-10T08:25:48.477Z,11.80
2022-11-10T08:28:18.149Z,11.80
2022-11-10T08:30:49.319Z,11.80
2022-11-10T08:33:18.691Z,11.80
2022-11-10T08:35:52.007Z,11.90
2022-11-10T08:38:22.189Z,11.90
2022-11-10T08:40:51.512Z,12.00
2022-11-10T08:43:21.501Z,12.00
2022-11-10T08:45:53.946Z,12.00
2022-11-10T08:48:23.801Z,12.10
2022-11-10T08:50:53.971Z,12.10
2022-11-10T08:53:25.265Z,12.20
2022-11-10T08:55:58.998Z,12.20
2022-11-10T08:58:29.288Z,12.30
2022-11-10T09:00:56.897Z,12.30
2022-11-10T09:03:27.384Z,12.40
2022-11-10T09:05:58.861Z,12.40
2022-11-10T09:08:28.552Z,12.50
2022-11-10T09:10:55.986Z,12.50
2022-11-10T09:13:29.930Z,12.60
2022-11-10T09:16:04.331Z,12.60
2022-11-10T09:18:31.788Z,12.70
2022-11-10T09:20:58.955Z,12.80
2022-11-10T09:23:28.404Z,12.80
2022-11-10T09:25:59.007Z,12.90
2022-11-10T09:28:26.110Z,12.90
2022-11-10T09:30:55.438Z,13.00
2022-11-10T09:33:25.314Z,13.00
2022-11-10T09:35:57.878Z,13.10
2022-11-10T09:38:27.064Z,13.10
2022-11-10T09:41:04.422Z,13.20
2022-11-10T09:43:40.352Z,13.30
2022-11-10T09:46:22.708Z,13.30
2022-11-10T09:49:14.551Z,13.40
2022-11-10T09:51:48.474Z,13.40
2022-11-10T09:54:37.021Z,13.40
2022-11-10T09:57:06.641Z,13.60
2022-11-10T09:59:34.745Z,13.60
2022-11-10T10:02:31.162Z,13.60
2022-11-10T10:05:16.445Z,13.70
2022-11-10T10:08:09.029Z,13.80
2022-11-10T10:10:42.841Z,13.80
2022-11-10T10:13:37.407Z,13.80
2022-11-10T10:16:28.696Z,13.90
2022-11-10T10:19:06.698Z,14.00
2022-11-10T10:22:05.335Z,14.00
2022-11-10T10:24:39.274Z,14.10
2022-11-10T10:27:18.007Z,14.10
2022-11-10T10:29:50.119Z,14.20
2022-11-10T10:32:22.842Z,14.20
2022-11-10T10:34:54.775Z,14.30
2022-11-10T10:37:30.958Z,14.30
2022-11-10T10:40:00.447Z,14.40
2022-11-10T10:42:37.779Z,14.50
2022-11-10T10:45:22.898Z,14.50
2022-11-10T10:47:55.593Z,14.60
2022-11-10T10:50:35.884Z,14.60
2022-11-10T10:53:16.741Z,14.70
2022-11-10T10:55:49.673Z,14.70
2022-11-10T10:58:31.792Z,14.70
2022-11-10T11:01:24.321Z,14.80
2022-11-10T11:03:55.396Z,14.80
2022-11-10T11:06:28.697Z,14.90
2022-11-10T11:09:15.063Z,14.90
2022-11-10T11:11:46.353Z,15.00
2022-11-10T11:14:25.803Z,15.10
2022-11-10T11:16:58.518Z,15.20
2022-11-10T11:19:37.298Z,15.20
2022-11-10T11:22:36.684Z,15.20
2022-11-10T11:25:03.706Z,15.30
2022-11-10T11:27:56.585Z,15.30
2022-11-10T11:31:01.153Z,15.40
2022-11-10T11:33:52.440Z,15.40
2022-11-10T11:36:22.618Z,15.40
2022-11-10T11:39:26.320Z,15.50
2022-11-10T11:42:14.374Z,15.60
2022-11-10T11:45:17.257Z,15.60
2022-11-10T11:48:10.965Z,15.70
2022-11-10T11:50:50.634Z,15.70
2022-11-10T11:53:35.174Z,15.70
2022-11-10T11:56:22.051Z,15.80
2022-11-10T11:59:16.425Z,15.80
2022-11-10T12:02:12.183Z,15.90
2022-11-10T12:05:12.024Z,16.00
2022-11-10T12:07:45.128Z,16.00
2022-11-10T12:10:43.792Z,16.10
2022-11-10T12:13:32.057Z,16.10
2022-11-10T12:16:33.442Z,16.10
2022-11-10T12:19:21.790Z,16.10
2022-11-10T12:22:07.855Z,16.20
2022-11-10T12:24:37.907Z,16.20
2022-11-10T12:27:18.854Z,16.20
2022-11-10T12:29:53.368Z,16.20
2022-11-10T12:32:32.008Z,16.20
2022-11-10T12:35:23.460Z,16.30
2022-11-10T12:37:55.441Z,16.30
2022-11-10T12:40:27.598Z,16.30
2022-11-10T12:43:01.147Z,16.30
2022-11-10T12:45:37.804Z,16.30
2022-11-10T12:48:08.353Z,16.30
2022-11-10T12:51:02.005Z,16.30
2022-11-10T12:53:41.251Z,16.30
2022-11-10T12:56:39.468Z,16.40
2022-11-10T12:59:21.464Z,16.40
2022-11-10T13:01:57.823Z,16.40
2022-11-10T13:04:25.174Z,16.40
2022-11-10T13:06:59.738Z,16.40
2022-11-10T13:09:32.008Z,16.40
2022-11-10T13:12:16.920Z,16.40
2022-11-10T13:14:47.340Z,16.40
2022-11-10T13:17:26.220Z,16.50
2022-11-10T13:20:09.566Z,16.50
2022-11-10T13:22:49.790Z,16.50
2022-11-10T13:25:35.959Z,16.60
2022-11-10T13:28:04.442Z,16.60
2022-11-10T13:30:39.277Z,16.60
2022-11-10T13:33:34.381Z,16.60
2022-11-10T13:36:01.719Z,16.70
2022-11-10T13:38:42.904Z,16.70
2022-11-10T13:41:16.531Z,16.70
2022-11-10T13:43:57.954Z,16.70
2022-11-10T13:46:36.874Z,16.70
2022-11-10T13:49:22.484Z,16.70
2022-11-10T13:52:06.394Z,16.70
2022-11-10T13:54:50.556Z,16.80
2022-11-10T13:57:37.980Z,16.80
2022-11-10T14:00:29.633Z,16.80
2022-11-10T14:03:06.712Z,16.80
2022-11-10T14:05:41.990Z,16.80
2022-11-10T14:08:17.187Z,16.80
2022-11-10T14:10:56.610Z,16.80
2022-11-10T14:13:40.569Z,16.80
2022-11-10T14:16:18.881Z,16.80
2022-11-10T14:18:51.663Z,16.80
2022-11-10T14:21:33.227Z,16.80
2022-11-10T14:24:35.205Z,16.80
2022-11-10T14:27:08.226Z,16.80
2022-11-10T14:29:39.270Z,16.80
2022-11-10T14:32:22.445Z,16.80
2022-11-10T14:34:55.564Z,16.80
2022-11-10T14:37:25.570Z,16.80
2022-11-10T14:39:58.782Z,16.80
2022-11-10T14:42:33.279Z,16.80
2022-11-10T14:45:17.105Z,16.80
2022-11-10T14:47:59.188Z,16.80
2022-11-10T14:50:34.338Z,16.80
2022-11-10T14:53:33.447Z,16.80
2022-11-10T14:56:07.393Z,16.80
2022-11-10T14:58:36.777Z,16.80
2022-11-10T15:01:06.130Z,16.80
2022-11-10T15:03:40.635Z,16.80
2022-11-10T15:06:10.345Z,16.80
2022-11-10T15:08:38.343Z,16.70
2022-11-10T15:11:05.717Z,16.70
2022-11-10T15:13:39.285Z,16.70
2022-11-10T15:16:28.020Z,16.70
2022-11-10T15:19:35.776Z,16.70
2022-11-10T15:22:29.368Z,16.70
2022-11-10T15:25:08.744Z,16.60
2022-11-10T15:27:38.886Z,16.60
2022-11-10T15:30:21.722Z,16.50
2022-11-10T15:32:50.623Z,16.50
2022-11-10T15:35:23.503Z,16.40
2022-11-10T15:38:03.444Z,16.40
2022-11-10T15:40:42.733Z,16.40
2022-11-10T15:43:22.812Z,16.30
2022-11-10T15:45:57.618Z,16.30
2022-11-10T15:48:26.618Z,16.30
2022-11-10T15:50:56.293Z,16.20
2022-11-10T15:53:31.694Z,16.20
2022-11-10T15:55:58.831Z,16.10
2022-11-10T15:58:28.463Z,16.10
2022-11-10T16:00:55.717Z,16.10
2022-11-10T16:03:25.032Z,16.00
2022-11-10T16:05:52.155Z,16.00
2022-11-10T16:08:24.567Z,15.90
2022-11-10T16:10:54.153Z,15.90
2022-11-10T16:13:27.321Z,15.90
2022-11-10T16:15:55.418Z,15.80
2022-11-10T16:18:27.032Z,15.80
2022-11-10T16:20:54.121Z,15.70
2022-11-10T16:23:25.680Z,15.70
2022-11-10T16:25:55.512Z,15.70
2022-11-10T16:28:26.543Z,15.70
2022-11-10T16:30:56.831Z,15.60
2022-11-10T16:33:24.892Z,15.60
2022-11-10T16:35:53.785Z,15.50
2022-11-10T16:38:26.795Z,15.50
2022-11-10T16:41:06.538Z,15.40
2022-11-10T16:43:33.883Z,15.40
2022-11-10T16:46:04.486Z,15.30
2022-11-10T16:48:34.439Z,15.30
2022-11-10T16:51:04.147Z,15.30
2022-11-10T16:53:32.051Z,15.30
2022-11-10T16:55:59.218Z,15.20
2022-11-10T16:58:29.709Z,15.20
2022-11-10T17:01:03.732Z,15.20
2022-11-10T17:03:38.093Z,15.20
2022-11-10T17:06:05.600Z,15.20
2022-11-10T17:08:37.787Z,15.10
2022-11-10T17:11:07.368Z,15.10
2022-11-10T17:13:34.468Z,15.10
2022-11-10T17:16:10.328Z,15.00
2022-11-10T17:18:43.537Z,15.00
2022-11-10T17:21:14.751Z,15.00
2022-11-10T17:23:44.002Z,15.00
2022-11-10T17:26:13.156Z,14.90
2022-11-10T17:28:42.319Z,14.90
2022-11-10T17:31:09.411Z,14.90
2022-11-10T17:33:36.492Z,14.80
2022-11-10T17:36:05.158Z,14.80
2022-11-10T17:38:34.666Z,14.80
2022-11-10T17:41:04.162Z,14.70
2022-11-10T17:43:33.425Z,14.70
2022-11-10T17:46:07.764Z,14.60
2022-11-10T17:48:39.395Z,14.60
2022-11-10T17:51:15.899Z,14.60
2022-11-10T17:53:43.095Z,14.50
2022-11-10T17:56:10.141Z,14.50
2022-11-10T17:58:37.281Z,14.50
2022-11-10T18:01:13.566Z,14.40
2022-11-10T18:03:43.211Z,14.40
2022-11-10T18:06:14.402Z,14.40
2022-11-10T18:08:44.242Z,14.30
2022-11-10T18:11:13.514Z,14.30
2022-11-10T18:13:46.083Z,14.30
2022-11-10T18:16:20.091Z,14.20
2022-11-10T18:18:49.333Z,14.20
2022-11-10T18:21:16.612Z,14.20
2022-11-10T18:23:44.464Z,14.20
2022-11-10T18:26:11.817Z,14.10
2022-11-10T18:28:39.896Z,14.10
2022-11-10T18:31:11.566Z,14.10
2022-11-10T18:33:43.149Z,14.10
2022-11-10T18:36:12.315Z,14.00
2022-11-10T18:38:41.426Z,14.00
2022-11-10T18:41:29.381Z,14.00
2022-11-10T18:43:56.481Z,14.00
2022-11-10T18:46:23.543Z,13.90
2022-11-10T18:48:52.965Z,13.90
2022-11-10T18:51:22.593Z,13.90
2022-11-10T18:53:55.569Z,13.90
2022-11-10T18:56:25.927Z,13.90
2022-11-10T18:58:56.980Z,13.90
2022-11-10T19:01:24.835Z,13.80
2022-11-10T19:03:52.295Z,13.80
2022-11-10T19:06:19.396Z,13.80
2022-11-10T19:08:46.605Z,13.80
2022-11-10T19:11:21.210Z,13.70
2022-11-10T19:13:50.998Z,13.70
2022-11-10T19:16:19.313Z,13.70
2022-11-10T19:18:48.842Z,13.70
2022-11-10T19:21:21.432Z,13.70
2022-11-10T19:23:48.859Z,13.60
2022-11-10T19:26:22.880Z,13.60
2022-11-10T19:28:58.555Z,13.60
2022-11-10T19:31:27.187Z,13.60
2022-11-10T19:33:56.084Z,13.60
2022-11-10T19:36:25.597Z,13.60
2022-11-10T19:38:56.649Z,13.60
2022-11-10T19:41:28.931Z,13.50
2022-11-10T19:43:56.289Z,13.50
2022-11-10T19:46:28.817Z,13.50
2022-11-10T19:48:56.884Z,13.50
2022-11-10T19:51:25.268Z,13.50
2022-11-10T19:54:05.444Z,13.40
2022-11-10T19:56:35.672Z,13.40
2022-11-10T19:59:05.148Z,13.40
2022-11-10T20:01:37.764Z,13.40
2022-11-10T20:04:08.606Z,13.40
2022-11-10T20:06:35.807Z,13.40
2022-11-10T20:09:03.030Z,13.40
2022-11-10T20:11:30.286Z,13.30
2022-11-10T20:14:01.618Z,13.30
2022-11-10T20:16:28.693Z,13.30
2022-11-10T20:18:55.765Z,13.30
2022-11-10T20:21:23.999Z,13.30
2022-11-10T20:23:55.590Z,13.20
2022-11-10T20:26:23.434Z,13.20
2022-11-10T20:28:54.941Z,13.20
2022-11-10T20:31:25.950Z,13.20
2022-11-10T20:33:55.135Z,13.10
2022-11-10T20:36:29.901Z,13.10
2022-11-10T20:39:01.945Z,13.10
2022-11-10T20:41:31.111Z,13.10
2022-11-10T20:43:58.174Z,13.00
2022-11-10T20:46:53.025Z,13.00
2022-11-10T20:49:15.379Z,13.00
2022-11-10T20:51:43.427Z,13.00
2022-11-10T20:54:17.325Z,12.90
2022-11-10T20:56:44.437Z,12.90
2022-11-10T20:59:16.090Z,12.90
2022-11-10T21:01:43.227Z,12.90
2022-11-10T21:04:15.439Z,12.90
2022-11-10T21:06:45.090Z,12.80
2022-11-10T21:09:12.621Z,12.80
2022-11-10T21:12:01.090Z,12.80
2022-11-10T21:14:30.441Z,12.80
2022-11-10T21:17:00.510Z,12.80
2022-11-10T21:19:29.691Z,12.80
2022-11-10T21:21:56.773Z,12.70
2022-11-10T21:24:23.797Z,12.70
2022-11-10T21:26:51.178Z,12.70
2022-11-10T21:29:18.910Z,12.70
2022-11-10T21:31:48.524Z,12.70
2022-11-10T21:34:17.704Z,12.70
2022-11-10T21:36:44.832Z,12.70
2022-11-10T21:39:11.962Z,12.70
2022-11-10T21:41:39.055Z,12.70
2022-11-10T21:44:10.548Z,12.60
2022-11-10T21:46:37.724Z,12.60
2022-11-10T21:49:09.344Z,12.60
2022-11-10T21:51:36.484Z,12.60
2022-11-10T21:54:03.592Z,12.60
2022-11-10T21:56:33.113Z,12.50
2022-11-10T21:59:04.722Z,12.50
2022-11-10T22:01:31.927Z,12.50
2022-11-10T22:03:59.119Z,12.50
2022-11-10T22:06:46.187Z,12.50
2022-11-10T22:09:13.279Z,12.50
2022-11-10T22:12:01.287Z,12.50
2022-11-10T22:14:46.732Z,12.50
2022-11-10T22:17:34.539Z,12.40
2022-11-10T22:20:10.368Z,12.40
2022-11-10T22:22:39.882Z,12.40
2022-11-10T22:25:07.307Z,12.40
2022-11-10T22:27:36.861Z,12.40
2022-11-10T22:30:04.329Z,12.40
2022-11-10T22:32:31.342Z,12.40
2022-11-10T22:34:58.461Z,12.40
2022-11-10T22:37:32.994Z,12.40
2022-11-10T22:40:19.157Z,12.30
2022-11-10T22:43:07.063Z,12.30
2022-11-10T22:45:36.778Z,12.30
2022-11-10T22:48:22.440Z,12.30
2022-11-10T22:51:01.988Z,12.20
2022-11-10T22:53:29.090Z,12.20
2022-11-10T22:56:00.950Z,12.20
2022-11-10T22:58:28.277Z,12.20
2022-11-10T23:01:11.925Z,12.20
2022-11-10T23:03:40.278Z,12.20
2022-11-10T23:06:09.834Z,12.20
2022-11-10T23:08:41.832Z,12.20
2022-11-10T23:11:12.470Z,12.10
2022-11-10T23:13:40.292Z,12.10
2022-11-10T23:16:13.863Z,12.10
2022-11-10T23:18:43.630Z,12.10
2022-11-10T23:21:13.705Z,12.10
2022-11-10T23:23:44.270Z,12.10
2022-11-10T23:26:17.297Z,12.10
2022-11-10T23:28:51.792Z,12.10
2022-11-10T23:31:28.657Z,12.10
2022-11-10T23:33:57.506Z,12.10
2022-11-10T23:36:27.821Z,12.10
2022-11-10T23:38:55.140Z,12.10
2022-11-10T23:41:26.136Z,12.10
2022-11-10T23:43:56.161Z,12.10
2022-11-10T23:46:25.393Z,12.10
2022-11-10T23:48:54.816Z,12.10
2022-11-10T23:51:21.994Z,12.10
2022-11-10T23:53:49.167Z,12.10
2022-11-10T23:56:18.620Z,12.00
2022-11-10T23:58:48.450Z,12.00
